Tropical Cyclones
[Index]
Main Index Home Page Stock Weather Photos Extreme Storms Discussion Storm News and Storm Chasing Reports Tropical Cyclones / Hurricanes / Typhoons Weather Data and Links Wild Fires / Bushfires Weather Observation Techniques Weather Picture Catalogue Tornado Pictures and Reports Stock Video Footage and DVDs for sale
Season 1983-1984 Tropical Cyclone ANNETTE Track Map
Season 1983-1984 Summaries: [BoM-AU] [JTWC-AU] [JTWC-SIO] [JTWC-SPAC] [JTWC-SH]
<<- Previous TC | BoM 1983-1984 Season | Next TC ->>

click for intensity scale information  Lat/long Grid: Show Hide

 Date Labels: Show Hide

Bureau of Meteorology Tropical Cyclone Data

Name: ANNETTE
Number: 653 / 198384_12

03 Feb 1984 12:00 UTC to 16 Feb 1984 03:00 UTC

    date/time    lat    long    hPa   cat  kts
1984-02-03 12    9.4   101.1   1002                     
1984-02-03 18    9.5   100.5   1002                     
1984-02-04 00    9.6    99.5   1000                     
1984-02-04 06    9.7    98.5    999                     
1984-02-04 12   10.1    98.0    999                     
1984-02-04 18   10.5    97.7    999                     
1984-02-05 00   10.9    97.5    999                     
1984-02-05 06   11.3    97.2    998                     
1984-02-05 09   11.6    96.9    996                     
1984-02-05 12   12.1    96.5    994    1                
1984-02-05 18   12.5    95.8    994    1                
1984-02-06 00   12.9    94.9    990    1                
1984-02-06 06   13.6    94.5    990    1                
1984-02-06 12   14.7    94.1    985    2                
1984-02-06 18   15.4    93.5    985    2                
1984-02-07 00   15.8    92.6    982    2                
1984-02-07 06   16.1    91.4    980    2                
1984-02-07 12   16.0    90.0    980    2                
1984-02-07 18   16.1    89.1    978    2                
1984-02-08 00   16.5    88.2    980    2                
1984-02-08 06   16.6    87.9    978    2                
1984-02-08 12   16.4    87.6    975    2                
1984-02-08 18   15.6    87.3    973    2                
1984-02-09 00   15.0    87.0    970    3                
1984-02-09 06   14.9    87.2    965    3                
1984-02-09 12   15.0    87.1    965    3                
1984-02-09 18   14.5    87.0    965    3                
1984-02-10 00   14.3    87.5    962    3                
1984-02-10 06   14.5    88.5    960    3                
1984-02-10 12   14.2    89.1    960    3                
1984-02-10 18   14.5    89.7    960    3                
1984-02-11 00   15.0    90.0    960    3                
1984-02-11 06   15.4    90.3    960    3                
1984-02-11 12   15.8    90.1    965    3                
1984-02-11 18   15.7    89.5    965    3                
1984-02-12 00   16.1    88.2    965    3                
1984-02-12 06   16.1    87.9    965    3                
1984-02-12 12   15.9    87.3    965    3                
1984-02-12 18   16.1    86.7    965    3                
1984-02-13 00   16.2    86.1    965    3                
1984-02-13 06   16.4    85.7    965    3                
1984-02-13 12   16.5    85.1    965    3                
1984-02-13 18   16.6    84.8    965    3                
1984-02-14 00   17.0    85.1    965    3                
1984-02-14 06   17.2    85.2    965    3                
1984-02-14 12   17.6    84.8    965    3                
1984-02-14 18   17.8    83.8    965    3                
1984-02-15 00   18.0    83.1    965    3                
1984-02-15 06   18.8    82.7    965    3                
1984-02-15 12   19.2    81.8    965    3                
1984-02-15 18   19.4    80.9    965    3                
1984-02-16 00   19.5    80.2    965    3                
1984-02-16 03   19.5    80.0    965    3                
Winds are 10-min average.

Tropical cyclone tracks developed by Michael Bath using data from the Bureau of Meteorology and Google Maps.


[Australian Severe Weather index] [Copyright Notice] [Email Contacts] [Search This Site] [Privacy Policy]
Document: tropical_cyclone_annette.htm Updated: 30 May 2013